Latest Weather Observations for Hindmarsh Island

IDS60901

Issued at 5:25 pm CDT Saturday 1 November 2014 (issued every 10 minutes, with the page automatically refreshed every 10 minutes)

About weather observations | Map of Adelaide area stations | Latest observations for Adelaide area | Other Formats
Station Details ID: 023894 Name: HINDMARSH ISLAND AWS Lat: -35.52 Lon: 138.82 Height: 11.0 m
Data from the previous 72 hours. | See also: Recent months at Hindmarsh Island
Date/Time
CDT
Tmp

°C
App
Tmp
°C
Dew
Point
°C
Rel
Hum
%
Delta-T

°C
Wind Press
QNH
hPa
Press
MSL
hPa
Rain
since
9 am
mm
Dir
 
Spd
km/h
Gust
km/h
Spd
kts
Gust
kts
01/05:00pm 15.7 7.1 4.7 48 5.2 SW 39 48 21 26 1018.9 - 0.0
01/04:30pm 16.2 6.8 5.5 49 5.1 SW 44 54 24 29 1018.4 - 0.0
01/04:00pm 16.6 7.7 4.9 46 5.6 SW 41 52 22 28 1018.2 - 0.0
01/03:30pm 16.0 6.5 3.8 44 5.6 SW 43 52 23 28 1017.8 - 0.0
01/03:00pm 16.1 6.1 4.5 46 5.4 SW 46 56 25 30 1017.8 1017.8 0.0
01/02:30pm 16.4 7.1 4.8 46 5.5 SW 43 50 23 27 1017.8 - 0.0
01/02:00pm 16.3 7.1 6.2 51 4.9 SW 44 54 24 29 1017.7 - 0.0
01/01:30pm 16.5 6.7 2.5 39 6.3 SW 43 54 23 29 1017.5 - 0.0
01/01:00pm 16.5 7.1 4.2 44 5.8 SW 43 54 23 29 1017.2 - 0.0
01/12:30pm 15.7 5.6 3.8 45 5.5 SW 46 59 25 32 1016.8 - 0.0
01/12:00pm 16.1 6.0 3.5 43 5.8 SW 46 57 25 31 1016.6 1016.4 0.0
01/11:35am 15.1 4.9 3.3 45 5.4 SW 46 65 25 35 1016.2 - 0.0
01/11:30am 15.3 5.4 2.8 43 5.6 SW 44 56 24 30 1016.1 - 0.0
01/11:00am 15.6 4.0 3.7 45 5.5 SW 54 69 29 37 1015.8 - 0.0
01/10:30am 14.4 4.2 5.0 53 4.4 SW 48 61 26 33 1015.5 - 0.0
01/10:00am 13.9 3.6 6.5 61 3.6 SW 50 61 27 33 1015.0 - 0.0
01/09:45am 14.9 5.0 6.5 57 4.1 SW 48 67 26 36 1014.5 - 0.0
01/09:30am 14.3 3.3 5.1 54 4.3 SW 52 69 28 37 1014.4 - 0.0
01/09:17am 14.5 5.2 5.0 53 4.4 SW 43 61 23 33 1014.1 - 0.0
01/09:00am 14.2 3.7 5.8 57 4.0 SW 50 61 27 33 1013.6 1013.5 1.8
01/08:43am 14.2 5.0 6.3 59 3.8 SW 44 63 24 34 1013.3 - 1.8
01/08:30am 14.0 4.4 4.6 53 4.3 SW 44 61 24 33 1013.1 - 1.8
01/08:00am 14.6 3.6 5.1 53 4.5 SW 52 67 28 36 1012.4 - 1.8
01/07:47am 14.3 4.0 6.6 60 3.7 SW 50 69 27 37 1012.0 - 1.8
01/07:30am 13.9 3.8 7.2 64 3.3 SW 50 67 27 36 1011.3 - 1.8
01/07:00am 13.6 3.3 6.5 62 3.4 SW 50 63 27 34 1010.6 - 1.8
01/06:51am 13.9 3.9 7.9 67 3.0 SW 50 69 27 37 1010.6 - 1.8
01/06:30am 13.4 2.8 7.0 65 3.1 SW 52 67 28 36 1010.1 - 1.8
01/06:00am 14.0 5.3 7.5 65 3.2 SW 43 57 23 31 1009.5 1009.4 1.8
01/05:30am 13.5 4.4 6.1 61 3.5 SW 43 52 23 28 1009.1 - 1.8
01/05:00am 13.5 3.6 6.4 62 3.4 SW 48 63 26 34 1008.7 - 1.8
01/04:30am 13.4 3.3 7.6 68 2.8 SW 50 65 27 35 1008.0 - 1.8
01/04:13am 13.7 4.9 9.7 77 2.1 SW 46 65 25 35 1007.8 - 1.8
01/04:00am 13.5 3.4 9.0 74 2.3 SW 52 67 28 36 1007.2 - 1.8
01/03:50am 13.0 3.7 9.3 78 1.9 SW 48 69 26 37 1006.9 - 1.8
01/03:30am 13.2 4.8 10.9 86 1.2 SW 46 63 25 34 1006.9 - 1.6
01/03:13am 13.2 4.1 11.4 89 1.0 SW 50 69 27 37 1006.5 - 1.6
01/03:00am 13.7 5.4 11.4 86 1.2 SW 46 63 25 34 1006.6 1006.4 1.0
01/02:30am 14.5 9.0 12.0 85 1.4 WSW 32 57 17 31 1006.2 - 0.6
01/02:28am 14.8 10.0 11.8 82 1.6 W 28 48 15 26 1006.2 - 0.6
01/02:00am 14.1 9.6 11.3 83 1.5 W 26 35 14 19 1006.2 - 0.6
01/01:30am 14.8 11.3 10.8 77 2.1 W 20 30 11 16 1006.4 - 0.6
01/01:00am 15.2 10.9 10.8 75 2.3 W 24 33 13 18 1006.4 - 0.6
01/12:30am 15.1 11.7 11.1 77 2.1 WSW 20 30 11 16 1006.2 - 0.6
01/12:00am 14.9 10.8 11.3 79 1.9 WSW 24 33 13 18 1006.1 1006.0 0.6
 
Date/Time
CDT
Tmp

°C
App
Tmp
°C
Dew
Point
°C
Rel
Hum
%
Delta-T

°C
Wind Press
QNH
hPa
Press
MSL
hPa
Rain
since
9 am
mm
Dir
 
Spd
km/h
Gust
km/h
Spd
kts
Gust
kts
31/11:30pm 14.9 9.9 11.1 78 2.0 WSW 28 35 15 19 1005.9 - 0.6
31/11:00pm 15.2 12.0 11.8 80 1.8 WSW 20 28 11 15 1005.2 - 0.6
31/10:30pm 15.1 12.1 12.1 82 1.6 SW 19 24 10 13 1004.9 - 0.6
31/10:00pm 15.2 12.1 12.3 83 1.6 SW 20 26 11 14 1004.9 - 0.6
31/09:30pm 15.1 10.5 12.4 84 1.5 WSW 28 35 15 19 1005.3 - 0.6
31/09:00pm 16.3 10.3 12.1 76 2.3 WSW 35 46 19 25 1005.0 1005.2 0.0
31/08:30pm 16.4 8.8 12.4 77 2.2 SW 44 57 24 31 1004.6 - 0.0
31/08:00pm 16.5 8.6 12.8 79 2.1 WSW 46 61 25 33 1004.1 - 0.0
31/07:30pm 16.9 9.6 13.4 80 2.0 SW 44 56 24 30 1002.3 - 0.0
31/07:00pm 17.0 8.5 13.3 79 2.1 SW 50 61 27 33 1001.9 - 0.0
31/06:30pm 17.4 9.9 13.9 80 2.0 SW 46 65 25 35 1001.5 - 0.0
31/06:28pm 17.4 9.9 13.9 80 2.0 SW 46 65 25 35 1001.5 - 0.0
31/06:00pm 18.7 12.6 14.0 74 2.7 SW 39 56 21 30 1000.9 1000.7 0.0
31/05:30pm 20.7 15.5 12.9 61 4.4 SW 32 41 17 22 1000.3 - 0.0
31/05:00pm 23.4 18.7 12.1 49 6.4 SW 28 35 15 19 999.8 - 0.0
31/04:30pm 23.5 17.4 11.9 48 6.6 SW 35 43 19 23 999.7 - 0.0
31/04:00pm 23.5 15.6 9.5 41 7.6 SW 41 56 22 30 999.1 - 0.0
31/03:52pm 23.6 17.3 11.0 45 7.0 SW 35 41 19 22 999.2 - 0.0
31/03:30pm 28.6 23.2 7.8 27 11.3 WSW 26 43 14 23 999.3 - 0.0
31/03:00pm 33.6 27.8 2.4 14 16.0 W 22 37 12 20 999.4 999.4 0.0
31/02:30pm 34.0 27.1 2.8 14 16.0 WNW 28 39 15 21 999.9 - 0.0
31/02:04pm 33.8 26.0 1.6 13 16.2 WNW 32 50 17 27 999.8 - 0.0
31/02:00pm 33.5 25.8 2.4 14 15.8 WNW 32 46 17 25 999.9 - 0.0
31/01:40pm 33.2 23.6 1.1 13 16.0 W 41 50 22 27 1000.1 - 0.0
31/01:30pm 34.4 25.0 -0.3 11 17.0 NW 39 54 21 29 1000.2 - 0.0
31/01:00pm 34.0 25.5 0.6 12 16.5 NW 35 54 19 29 1000.5 - 0.0
31/12:30pm 34.1 25.6 0.7 12 16.6 NW 35 54 19 29 1001.1 - 0.0
31/12:27pm 34.0 25.1 0.6 12 16.5 NW 37 48 20 26 1001.2 - 0.0
31/12:00pm 33.7 27.0 1.5 13 16.2 N 26 37 14 20 1001.5 1001.5 0.0
31/11:30am 33.1 26.1 2.0 14 15.7 NNW 28 39 15 21 1001.9 - 0.0
31/11:00am 31.9 25.5 3.0 16 14.7 N 26 33 14 18 1002.5 - 0.0
31/10:30am 29.6 23.1 2.8 18 13.4 NNE 26 35 14 19 1003.2 - 0.0
31/10:00am 27.5 20.8 3.9 22 11.9 NNE 28 37 15 20 1003.5 - 0.0
31/09:30am 26.7 19.7 3.9 23 11.4 NNE 30 37 16 20 1004.1 - 0.0
31/09:00am 24.2 17.1 5.5 30 9.5 NE 32 43 17 23 1004.6 1004.6 0.0
31/08:30am 21.7 15.7 7.2 39 7.5 NE 28 39 15 21 1004.9 - 0.0
31/08:00am 19.3 13.9 8.0 48 5.8 NNE 26 35 14 19 1005.3 - 0.0
31/07:30am 17.1 11.8 8.3 56 4.5 NNE 26 33 14 18 1005.6 - 0.0
31/07:00am 15.8 10.6 8.8 63 3.6 NNE 26 35 14 19 1005.8 - 0.0
31/06:30am 15.6 10.9 9.3 66 3.2 NNE 24 32 13 17 1006.0 - 0.0
31/06:00am 15.1 11.3 9.0 67 3.1 NNE 19 24 10 13 1006.4 1006.5 0.0
31/05:30am 16.0 11.6 9.0 63 3.6 NNE 22 30 12 16 1006.7 - 0.0
31/05:00am 15.5 10.8 9.4 67 3.1 NNE 24 30 13 16 1007.2 - 0.0
31/04:30am 15.4 10.8 9.7 69 3.0 N 24 32 13 17 1007.7 - 0.0
31/04:00am 15.0 10.5 10.0 72 2.6 N 24 30 13 16 1008.0 - 0.0
31/03:30am 14.7 11.5 11.1 79 1.9 N 19 24 10 13 1008.4 - 0.0
31/03:00am 14.1 11.5 10.7 80 1.8 NNE 15 19 8 10 1008.6 1008.6 0.0
31/02:30am 13.2 10.8 10.2 82 1.6 NNE 13 15 7 8 1009.0 - 0.0
31/02:00am 13.4 11.1 10.6 83 1.5 N 13 15 7 8 1009.6 - 0.0
31/01:30am 13.2 11.9 9.8 80 1.7 N 7 9 4 5 1010.5 - 0.0
31/01:00am 14.0 12.1 10.6 80 1.8 N 11 13 6 7 1011.4 - 0.0
31/12:30am 14.4 13.5 11.4 82 1.6 N 7 11 4 6 1011.6 - 0.0
31/12:00am 14.0 12.8 10.2 78 2.0 NNE 7 11 4 6 1011.8 1011.9 0.0
 
Date/Time
CDT
Tmp

°C
App
Tmp
°C
Dew
Point
°C
Rel
Hum
%
Delta-T

°C
Wind Press
QNH
hPa
Press
MSL
hPa
Rain
since
9 am
mm
Dir
 
Spd
km/h
Gust
km/h
Spd
kts
Gust
kts
30/11:30pm 14.4 12.3 11.0 80 1.8 NE 13 13 7 7 1012.2 - 0.0
30/11:00pm 13.7 11.0 10.3 80 1.8 ENE 15 15 8 8 1012.3 - 0.0
30/10:30pm 14.3 13.1 10.3 77 2.1 E 7 9 4 5 1012.8 - 0.0
30/10:00pm 14.6 13.4 10.2 75 2.3 E 7 7 4 4 1013.0 - 0.0
30/09:30pm 14.7 13.6 9.9 73 2.5 ENE 6 7 3 4 1013.1 - 0.0
30/09:00pm 14.4 13.0 9.4 72 2.6 NE 7 9 4 5 1012.7 1012.7 0.0
30/08:30pm 14.9 13.6 9.9 72 2.6 ENE 7 9 4 5 1012.4 - 0.0
30/08:00pm 15.0 13.6 9.6 70 2.8 ENE 7 9 4 5 1012.5 - 0.0
30/07:30pm 15.9 14.2 10.0 68 3.1 SSE 9 11 5 6 1012.5 - 0.0
30/07:00pm 16.4 14.1 10.5 68 3.1 SSE 13 17 7 9 1012.6 - 0.0
30/06:30pm 16.9 14.2 10.3 65 3.5 SSE 15 19 8 10 1012.7 - 0.0
30/06:00pm 17.3 14.4 10.9 66 3.4 S 17 20 9 11 1013.1 1013.1 0.0
30/05:30pm 17.3 13.6 10.2 63 3.8 S 20 26 11 14 1012.9 - 0.0
30/05:00pm 17.3 12.9 10.4 64 3.7 S 24 30 13 16 1013.2 - 0.0
30/04:30pm 18.3 13.6 10.7 61 4.1 S 26 30 14 16 1013.2 - 0.0
30/04:00pm 18.2 13.2 10.8 62 4.0 S 28 30 15 16 1013.1 - 0.0
30/03:30pm 18.2 13.4 10.3 60 4.2 S 26 30 14 16 1013.4 - 0.0
30/03:00pm 19.3 14.9 11.6 61 4.2 S 26 32 14 17 1013.6 1013.6 0.0
30/02:30pm 19.3 15.0 10.6 57 4.7 S 24 28 13 15 1014.0 - 0.0
30/02:00pm 19.6 16.2 10.6 56 4.9 SSE 19 22 10 12 1014.2 - 0.0
30/01:30pm 19.4 15.8 10.4 56 4.8 SSE 20 26 11 14 1014.8 - 0.0
30/01:00pm 19.4 15.1 10.7 57 4.7 S 24 28 13 15 1015.2 - 0.0
30/12:30pm 19.1 15.0 10.1 56 4.8 S 22 28 12 15 1015.6 - 0.0
30/12:00pm 19.0 14.4 9.8 55 4.9 SSE 24 28 13 15 1015.9 1015.9 0.0
30/11:30am 18.7 14.4 9.5 55 4.9 S 22 26 12 14 1016.0 - 0.0
30/11:00am 18.7 14.1 9.8 56 4.7 S 24 28 13 15 1016.3 - 0.0
30/10:30am 18.8 16.9 9.0 53 5.1 NNE 9 15 5 8 1016.2 - 0.0
30/10:00am 18.6 16.1 8.3 51 5.3 N 11 15 6 8 1016.2 - 0.0
30/09:30am 17.8 16.0 7.8 52 5.1 SE 7 9 4 5 1016.4 - 0.0
30/09:00am 16.9 15.4 8.6 58 4.2 WNW 6 9 3 5 1016.8 1016.8 0.0
30/08:30am 16.2 13.5 8.9 62 3.7 N 13 17 7 9 1016.4 - 0.0
30/08:00am 15.6 13.2 9.9 69 3.0 N 13 17 7 9 1016.7 - 0.0
30/07:30am 13.6 12.3 9.8 78 2.0 NNW 7 9 4 5 1016.8 - 0.0
30/07:00am 12.6 10.8 9.6 82 1.5 NW 9 13 5 7 1016.4 - 0.0
30/06:30am 12.0 10.2 9.6 85 1.2 WNW 9 11 5 6 1016.3 - 0.0
30/06:00am 12.0 10.2 9.6 85 1.2 N 9 13 5 7 1015.6 1015.5 0.0
30/05:30am 12.4 10.2 9.4 82 1.5 N 11 13 6 7 1015.3 - 0.0
30/05:00am 13.0 10.9 9.8 81 1.6 N 11 15 6 8 1014.9 - 0.0
30/04:30am 13.0 12.0 10.2 83 1.4 WNW 6 9 3 5 1016.3 - 0.0
30/04:00am 12.7 11.4 10.1 84 1.3 NW 7 9 4 5 1016.1 - 0.0
30/03:30am 12.7 11.6 10.1 84 1.3 NNW 6 7 3 4 1015.7 - 0.0
30/03:00am 12.7 10.5 9.5 81 1.6 N 11 13 6 7 1015.4 1015.3 0.0
30/02:30am 13.3 12.9 9.9 80 1.7 SE 2 9 1 5 1015.7 - 0.0
30/02:00am 13.4 13.4 9.8 79 1.8 CALM 0 0 0 0 1016.0 - 0.0
30/01:30am 13.6 12.2 9.6 77 2.0 SSE 7 9 4 5 1016.6 - 0.0
30/01:00am 13.9 12.2 9.9 77 2.1 S 9 13 5 7 1017.1 - 0.0
30/12:30am 14.6 12.2 10.0 74 2.4 S 13 15 7 8 1017.2 - 0.0
30/12:00am 14.9 11.9 10.7 76 2.2 S 17 20 9 11 1017.5 1017.6 0.0
 
Date/Time
CDT
Tmp

°C
App
Tmp
°C
Dew
Point
°C
Rel
Hum
%
Delta-T

°C
Wind Press
QNH
hPa
Press
MSL
hPa
Rain
since
9 am
mm
Dir
 
Spd
km/h
Gust
km/h
Spd
kts
Gust
kts
29/11:30pm 15.0 12.0 10.8 76 2.2 S 17 20 9 11 1017.8 - 0.0
29/11:00pm 15.0 12.0 10.6 75 2.3 S 17 20 9 11 1017.8 - 0.0
29/10:30pm 15.1 11.7 11.1 77 2.1 S 20 24 11 13 1017.7 - 0.0
29/10:00pm 15.2 11.8 11.2 77 2.1 S 20 24 11 13 1017.8 - 0.0
29/09:30pm 15.3 11.2 11.5 78 2.0 S 24 28 13 15 1017.6 - 0.0
29/09:00pm 15.4 11.3 11.4 77 2.1 S 24 28 13 15 1017.5 1017.5 0.0
29/08:30pm 15.5 11.1 11.7 78 2.1 S 26 32 14 17 1017.5 - 0.0
29/08:00pm 15.3 10.8 11.5 78 2.0 S 26 30 14 16 1017.5 - 0.0
29/07:30pm 15.4 10.1 11.4 77 2.1 SSW 30 32 16 17 1017.5 - 0.0
29/07:00pm 15.9 10.9 12.1 78 2.1 S 30 33 16 18 1016.9 - 0.0
29/06:30pm 16.3 11.6 11.9 75 2.4 SSW 28 33 15 18 1016.7 - 0.0
29/06:00pm 17.1 11.8 11.4 69 3.1 SSW 30 35 16 19 1016.6 1016.6 0.0
29/05:30pm 17.6 11.4 11.4 67 3.4 SSW 35 46 19 25 1016.3 - 0.0

Latest Capital City Observations: Canberra | Sydney | Melbourne | Brisbane | Adelaide | Perth | Hobart | Darwin

Other Formats:

Comma delimited format used in spreadsheet applications
http://www.bom.gov.au/fwo/IDS60901/IDS60901.94677.axf

JavaScript Object Notation format (JSON) in row-major order
http://www.bom.gov.au/fwo/IDS60901/IDS60901.94677.json